Time;durP1;ratioP1;P1;durP2;ratioP2;P2;SDS_P1;SDS_P2;PMS_P1;PMS_P2;Temp;Humidity;BMP_temperature;BMP_pressure;BME280_temperature;BME280_humidity;BME280_pressure;Samples;Min_cycle;Max_cycle;Signal;HPM_P1;HPM_P2
2022/10/16 00:02:12;;;;;;;;;;;12.40;99.90;;;;;;5058651;28;19913;-80
2022/10/16 00:04:38;;;;;;;;;;;12.40;99.90;;;;;;5063126;28;19984;-79
2022/10/16 00:07:04;;;;;;;;;;;12.40;99.90;;;;;;5070804;28;19920;-78
2022/10/16 00:09:29;;;;;;;;;;;12.40;99.90;;;;;;5066993;28;19940;-79
2022/10/16 00:11:55;;;;;;;;;;;12.30;99.90;;;;;;5027466;28;19957;-81
2022/10/16 00:14:21;;;;;;;;;;;12.30;99.90;;;;;;5057124;28;19980;-79
2022/10/16 00:16:46;;;;;;;;;;;12.30;99.90;;;;;;5039633;28;19952;-79
2022/10/16 00:19:12;;;;;;;;;;;12.30;99.90;;;;;;5039392;28;20265;-78
2022/10/16 00:21:38;;;;;;;;;;;12.30;99.90;;;;;;5058696;28;19935;-79
2022/10/16 00:24:05;;;;;;;;;;;12.30;99.90;;;;;;5042286;28;20451;-78
2022/10/16 00:26:32;;;;;;;;;;;12.40;99.90;;;;;;5059632;28;20339;-80
2022/10/16 00:28:58;;;;;;;;;;;12.30;99.90;;;;;;5058822;28;19913;-78
2022/10/16 00:31:24;;;;;;;;;;;12.30;99.90;;;;;;5058254;28;19912;-78
2022/10/16 00:33:50;;;;;;;;;;;12.30;99.90;;;;;;5041137;28;19913;-79
2022/10/16 00:36:17;;;;;;;;;;;12.30;99.90;;;;;;5060005;28;19937;-79
2022/10/16 00:38:43;;;;;;;;;;;12.30;99.90;;;;;;5060714;28;19909;-79
2022/10/16 00:41:11;;;;;;;;;;;12.30;99.90;;;;;;5050625;28;19923;-78
2022/10/16 00:43:37;;;;;;;;;;;12.30;99.90;;;;;;5065898;28;20027;-79
2022/10/16 00:46:04;;;;;;;;;;;12.30;99.90;;;;;;5077045;28;19905;-78
2022/10/16 00:48:30;;;;;;;;;;;12.30;99.90;;;;;;5078043;28;19937;-80
2022/10/16 00:50:56;;;;;;;;;;;12.20;99.90;;;;;;5071322;28;19912;-80
2022/10/16 00:53:22;;;;;;;;;;;12.20;99.90;;;;;;5048975;28;19922;-79
2022/10/16 00:55:48;;;;;;;;;;;12.20;99.90;;;;;;5048680;28;19920;-78
2022/10/16 00:58:13;;;;;;;;;;;12.20;99.90;;;;;;5059533;28;19909;-81
2022/10/16 01:00:39;;;;;;;;;;;12.20;99.90;;;;;;5043947;28;19916;-78
2022/10/16 01:03:22;;;;;;;;;;;12.20;99.90;;;;;;5065982;28;19934;-78
2022/10/16 01:05:55;;;;;;;;;;;12.20;99.90;;;;;;5010403;28;19923;-79
2022/10/16 01:08:29;;;;;;;;;;;12.20;99.90;;;;;;5039165;28;19924;-79
2022/10/16 01:10:57;;;;;;;;;;;12.20;99.90;;;;;;5057804;28;19912;-78
2022/10/16 01:13:38;;;;;;;;;;;12.20;99.90;;;;;;5057782;28;19937;-79
2022/10/16 01:16:10;;;;;;;;;;;12.20;99.90;;;;;;5039833;28;19912;-80
2022/10/16 01:18:52;;;;;;;;;;;12.20;99.90;;;;;;5038303;28;19912;-79
2022/10/16 01:21:23;;;;;;;;;;;12.20;99.90;;;;;;5060089;28;19912;-79
2022/10/16 01:23:58;;;;;;;;;;;12.20;99.90;;;;;;5046670;28;19913;-79
2022/10/16 01:26:30;;;;;;;;;;;12.20;99.90;;;;;;5057553;28;19913;-80
2022/10/16 01:29:10;;;;;;;;;;;12.20;99.90;;;;;;5061717;28;19916;-78
2022/10/16 01:31:38;;;;;;;;;;;12.20;99.90;;;;;;5063514;28;19951;-79
2022/10/16 01:34:04;;;;;;;;;;;12.20;99.90;;;;;;5028902;28;19968;-78
2022/10/16 01:36:51;;;;;;;;;;;12.20;99.90;;;;;;5046247;28;20289;-79
2022/10/16 01:39:19;;;;;;;;;;;12.20;99.90;;;;;;5062127;28;19951;-80
2022/10/16 01:41:48;;;;;;;;;;;12.20;99.90;;;;;;5058746;28;20003;-81
2022/10/16 01:44:17;;;;;;;;;;;12.20;99.90;;;;;;5042881;28;19985;-81
2022/10/16 01:46:45;;;;;;;;;;;12.20;99.90;;;;;;5068621;28;19909;-79
2022/10/16 01:49:11;;;;;;;;;;;12.20;99.90;;;;;;5047258;28;19917;-79
2022/10/16 01:51:37;;;;;;;;;;;12.10;99.90;;;;;;5064428;28;19978;-79
2022/10/16 01:54:04;;;;;;;;;;;12.10;99.90;;;;;;5064656;28;19919;-78
2022/10/16 01:56:31;;;;;;;;;;;12.10;99.90;;;;;;5047235;28;19913;-78
2022/10/16 01:59:05;;;;;;;;;;;12.00;99.90;;;;;;5066165;28;19935;-78
2022/10/16 02:01:33;;;;;;;;;;;12.00;99.90;;;;;;5040170;28;19913;-79
2022/10/16 02:04:01;;;;;;;;;;;12.10;99.90;;;;;;5056175;28;19962;-79
2022/10/16 02:06:27;;;;;;;;;;;12.10;99.90;;;;;;5041349;28;19948;-79
2022/10/16 02:08:53;;;;;;;;;;;12.10;99.90;;;;;;5061790;28;19916;-80
2022/10/16 02:11:18;;;;;;;;;;;12.10;99.90;;;;;;5038692;28;19913;-78
2022/10/16 02:14:03;;;;;;;;;;;12.10;99.90;;;;;;5040702;28;19909;-77
2022/10/16 02:16:35;;;;;;;;;;;12.10;99.90;;;;;;5048253;28;19913;-78
2022/10/16 02:19:01;;;;;;;;;;;12.00;99.90;;;;;;5048220;28;19962;-78
2022/10/16 02:21:34;;;;;;;;;;;12.10;99.90;;;;;;5065520;28;19968;-78
2022/10/16 02:24:18;;;;;;;;;;;12.10;99.90;;;;;;5051231;28;20269;-78
2022/10/16 02:26:44;;;;;;;;;;;12.10;99.90;;;;;;5068015;28;19998;-80
2022/10/16 02:29:12;;;;;;;;;;;12.10;99.90;;;;;;5050863;28;19920;-79
2022/10/16 02:31:40;;;;;;;;;;;12.20;99.90;;;;;;5051595;28;19916;-79
2022/10/16 02:34:06;;;;;;;;;;;12.20;99.90;;;;;;5049469;28;19972;-80
2022/10/16 02:36:33;;;;;;;;;;;12.20;99.90;;;;;;5065380;28;19913;-78
2022/10/16 02:39:00;;;;;;;;;;;12.20;99.90;;;;;;5067320;28;19909;-78
2022/10/16 02:41:25;;;;;;;;;;;12.30;99.90;;;;;;5063369;28;19913;-78
2022/10/16 02:43:51;;;;;;;;;;;12.20;99.90;;;;;;5066093;28;20352;-78
2022/10/16 02:46:18;;;;;;;;;;;12.30;99.90;;;;;;5071795;28;19992;-77
2022/10/16 02:48:43;;;;;;;;;;;12.30;99.90;;;;;;5040743;28;19995;-78
2022/10/16 02:51:09;;;;;;;;;;;12.20;99.90;;;;;;5039605;28;20016;-79
2022/10/16 02:53:34;;;;;;;;;;;12.20;99.90;;;;;;5056909;28;19963;-79
2022/10/16 02:56:00;;;;;;;;;;;12.20;99.90;;;;;;5037046;28;19923;-79
2022/10/16 02:58:26;;;;;;;;;;;12.20;99.90;;;;;;5062429;28;20012;-77
2022/10/16 03:00:51;;;;;;;;;;;12.20;99.90;;;;;;5045487;28;19913;-77
2022/10/16 03:03:17;;;;;;;;;;;12.20;99.90;;;;;;5061729;28;20018;-78
2022/10/16 03:05:43;;;;;;;;;;;12.20;99.90;;;;;;5062414;28;19912;-77
2022/10/16 03:08:09;;;;;;;;;;;12.20;99.90;;;;;;5099861;22;20812;-85
2022/10/16 03:10:34;;;;;;;;;;;12.20;99.90;;;;;;5057534;28;19901;-88
2022/10/16 03:13:00;;;;;;;;;;;12.10;99.90;;;;;;5038290;28;19908;-86
2022/10/16 03:15:28;;;;;;;;;;;12.10;99.90;;;;;;5056633;28;19921;-86
2022/10/16 03:17:53;;;;;;;;;;;12.10;99.90;;;;;;5040679;28;19921;-88
2022/10/16 03:20:19;;;;;;;;;;;12.10;99.90;;;;;;5070016;28;19935;-89
2022/10/16 03:22:45;;;;;;;;;;;12.10;99.90;;;;;;5074612;28;19904;-88
2022/10/16 03:25:10;;;;;;;;;;;12.10;99.90;;;;;;5077527;28;19936;-89
2022/10/16 03:27:36;;;;;;;;;;;12.00;99.90;;;;;;5060770;28;19897;-89
2022/10/16 03:30:02;;;;;;;;;;;12.00;99.90;;;;;;5060632;28;19936;-88
2022/10/16 03:32:28;;;;;;;;;;;12.00;99.90;;;;;;5076844;28;19901;-87
2022/10/16 03:34:56;;;;;;;;;;;12.00;99.90;;;;;;5077436;28;19976;-87
2022/10/16 03:37:21;;;;;;;;;;;12.00;99.90;;;;;;5069922;28;20308;-85
2022/10/16 03:39:47;;;;;;;;;;;12.00;99.90;;;;;;5067807;28;19913;-88
2022/10/16 03:42:13;;;;;;;;;;;11.90;99.90;;;;;;5063632;28;19928;-88
2022/10/16 03:44:38;;;;;;;;;;;12.00;99.90;;;;;;5047850;28;19920;-88
2022/10/16 03:47:04;;;;;;;;;;;11.90;99.90;;;;;;5076194;28;19908;-87
2022/10/16 03:49:30;;;;;;;;;;;12.00;99.90;;;;;;5056450;28;20269;-89
2022/10/16 03:51:55;;;;;;;;;;;12.00;99.90;;;;;;5049457;28;19913;-89
2022/10/16 03:54:22;;;;;;;;;;;12.00;99.90;;;;;;5066280;28;19913;-87
2022/10/16 03:56:48;;;;;;;;;;;11.90;99.90;;;;;;5066213;28;19923;-88
2022/10/16 03:59:13;;;;;;;;;;;11.80;99.90;;;;;;5058275;28;19948;-87
2022/10/16 04:01:39;;;;;;;;;;;11.80;99.90;;;;;;5081335;28;19929;-88
2022/10/16 04:04:05;;;;;;;;;;;11.80;99.90;;;;;;5071979;28;19971;-86
2022/10/16 04:06:30;;;;;;;;;;;11.80;99.90;;;;;;5065718;28;19956;-88
2022/10/16 04:08:56;;;;;;;;;;;11.80;99.90;;;;;;5065049;28;19943;-87
2022/10/16 04:11:22;;;;;;;;;;;11.80;99.90;;;;;;5064314;28;19944;-88
2022/10/16 04:13:48;;;;;;;;;;;11.80;99.90;;;;;;5047801;28;19923;-87
2022/10/16 04:16:14;;;;;;;;;;;11.70;99.90;;;;;;5048575;28;19921;-87
2022/10/16 04:18:39;;;;;;;;;;;11.70;99.90;;;;;;5064477;28;19937;-88
2022/10/16 04:21:06;;;;;;;;;;;11.70;99.90;;;;;;5064315;28;19909;-86
2022/10/16 04:23:31;;;;;;;;;;;11.70;99.90;;;;;;5064651;28;19913;-89
2022/10/16 04:25:57;;;;;;;;;;;11.60;99.90;;;;;;5064828;28;19909;-86
2022/10/16 04:28:23;;;;;;;;;;;11.60;99.90;;;;;;5068133;28;19913;-87
2022/10/16 04:30:49;;;;;;;;;;;11.60;99.90;;;;;;5078573;28;19897;-88
2022/10/16 04:33:14;;;;;;;;;;;11.60;99.90;;;;;;5077715;28;20019;-86
2022/10/16 04:35:40;;;;;;;;;;;11.60;99.90;;;;;;5061276;28;19905;-87
2022/10/16 04:38:06;;;;;;;;;;;11.50;99.90;;;;;;5075522;28;19917;-88
2022/10/16 04:40:36;;;;;;;;;;;11.60;99.90;;;;;;5074273;28;19920;-88
2022/10/16 04:43:05;;;;;;;;;;;11.60;99.90;;;;;;5067782;28;19943;-88
2022/10/16 04:45:31;;;;;;;;;;;11.50;99.90;;;;;;5050055;28;19966;-88
2022/10/16 04:47:57;;;;;;;;;;;11.60;99.90;;;;;;5066745;28;20007;-90
2022/10/16 04:50:23;;;;;;;;;;;11.50;99.90;;;;;;5068073;28;19920;-88
2022/10/16 04:53:04;;;;;;;;;;;11.50;99.90;;;;;;5054510;28;19917;-88
2022/10/16 04:55:30;;;;;;;;;;;11.50;99.90;;;;;;5066151;28;19959;-89
2022/10/16 04:57:55;;;;;;;;;;;11.50;99.90;;;;;;5071614;28;19908;-89
2022/10/16 05:00:22;;;;;;;;;;;11.50;99.90;;;;;;5068559;28;19913;-87
2022/10/16 05:02:49;;;;;;;;;;;11.50;99.90;;;;;;5065575;28;19935;-89
2022/10/16 05:05:15;;;;;;;;;;;11.40;99.90;;;;;;5066146;28;20011;-88
2022/10/16 05:07:40;;;;;;;;;;;11.40;99.90;;;;;;5067780;28;19916;-88
2022/10/16 05:10:07;;;;;;;;;;;11.40;99.90;;;;;;5073385;28;19946;-86
2022/10/16 05:12:32;;;;;;;;;;;11.40;99.90;;;;;;5080001;28;19897;-89
2022/10/16 05:14:59;;;;;;;;;;;11.40;99.90;;;;;;5079332;28;19901;-89
2022/10/16 05:17:25;;;;;;;;;;;11.40;99.90;;;;;;5079313;28;19931;-88
2022/10/16 05:19:52;;;;;;;;;;;11.40;99.90;;;;;;5079405;28;19968;-88
2022/10/16 05:22:18;;;;;;;;;;;11.40;99.90;;;;;;5079079;28;19937;-87
2022/10/16 05:24:43;;;;;;;;;;;11.30;99.90;;;;;;5059299;28;19918;-87
2022/10/16 05:27:10;;;;;;;;;;;11.40;99.90;;;;;;5074596;28;19913;-87
2022/10/16 05:29:36;;;;;;;;;;;11.40;99.90;;;;;;5073923;28;19921;-87
2022/10/16 05:32:02;;;;;;;;;;;11.40;99.90;;;;;;5069501;28;19920;-86
2022/10/16 05:34:27;;;;;;;;;;;11.40;99.90;;;;;;5053263;28;19913;-89
2022/10/16 05:36:53;;;;;;;;;;;11.50;99.90;;;;;;5070827;28;19916;-87
2022/10/16 05:39:19;;;;;;;;;;;11.50;99.90;;;;;;5072822;28;19912;-86
2022/10/16 05:41:45;;;;;;;;;;;11.50;99.90;;;;;;5075098;28;19908;-89
2022/10/16 05:44:11;;;;;;;;;;;11.60;99.90;;;;;;5053181;28;19912;-89
2022/10/16 05:46:36;;;;;;;;;;;11.60;99.90;;;;;;5060989;28;19903;-88
2022/10/16 05:49:02;;;;;;;;;;;11.60;99.90;;;;;;5066098;28;20045;-88
2022/10/16 05:51:28;;;;;;;;;;;11.60;99.90;;;;;;5065006;28;19940;-89
2022/10/16 05:53:54;;;;;;;;;;;11.50;99.90;;;;;;5065432;28;20371;-88
2022/10/16 05:56:19;;;;;;;;;;;11.60;99.90;;;;;;5070955;28;19897;-89
2022/10/16 05:58:45;;;;;;;;;;;11.60;99.90;;;;;;5061669;28;19900;-89
2022/10/16 06:01:12;;;;;;;;;;;11.60;99.90;;;;;;5065070;28;19909;-86
2022/10/16 06:03:38;;;;;;;;;;;11.70;99.90;;;;;;5072515;28;19913;-85
2022/10/16 06:06:15;;;;;;;;;;;11.70;99.90;;;;;;5073743;28;19914;-85
2022/10/16 06:08:41;;;;;;;;;;;11.80;99.90;;;;;;5055703;28;19905;-85
2022/10/16 06:11:08;;;;;;;;;;;11.80;99.90;;;;;;5060587;28;19944;-87
2022/10/16 06:13:34;;;;;;;;;;;11.80;99.90;;;;;;5073618;28;19920;-88
2022/10/16 06:16:00;;;;;;;;;;;11.80;99.90;;;;;;5074005;28;19904;-86
2022/10/16 06:18:26;;;;;;;;;;;11.90;99.90;;;;;;5078498;28;19912;-88
2022/10/16 06:20:52;;;;;;;;;;;12.00;99.90;;;;;;5078284;28;19900;-88
2022/10/16 06:23:18;;;;;;;;;;;12.00;99.90;;;;;;5056371;28;19985;-88
2022/10/16 06:25:43;;;;;;;;;;;12.00;99.90;;;;;;5048976;28;19919;-87
2022/10/16 06:28:09;;;;;;;;;;;12.10;99.90;;;;;;5065647;28;19917;-87
2022/10/16 06:30:35;;;;;;;;;;;12.10;99.90;;;;;;5065444;28;20020;-87
2022/10/16 06:33:01;;;;;;;;;;;12.10;99.90;;;;;;5067372;28;19913;-88
2022/10/16 06:35:27;;;;;;;;;;;12.20;99.90;;;;;;5064191;28;19920;-88
2022/10/16 06:37:53;;;;;;;;;;;12.20;99.90;;;;;;5065648;28;19981;-88
2022/10/16 06:40:18;;;;;;;;;;;12.20;99.90;;;;;;5048823;28;19916;-89
2022/10/16 06:42:45;;;;;;;;;;;12.20;99.90;;;;;;5071093;28;19921;-87
2022/10/16 06:45:12;;;;;;;;;;;12.20;99.90;;;;;;5077769;28;20037;-88
2022/10/16 06:47:39;;;;;;;;;;;12.30;99.90;;;;;;5077400;28;19901;-87
2022/10/16 06:50:08;;;;;;;;;;;12.30;99.90;;;;;;5060547;28;19935;-89
2022/10/16 06:52:34;;;;;;;;;;;12.20;99.90;;;;;;5306326;22;21260;-89
2022/10/16 06:55:00;;;;;;;;;;;12.20;99.90;;;;;;5039095;28;19925;-86
2022/10/16 06:57:26;;;;;;;;;;;12.30;99.90;;;;;;5040918;28;19905;-88
2022/10/16 06:59:52;;;;;;;;;;;12.40;99.90;;;;;;5041182;28;19901;-87
2022/10/16 07:02:18;;;;;;;;;;;12.40;99.90;;;;;;5060538;28;19978;-88
2022/10/16 07:04:44;;;;;;;;;;;12.40;99.90;;;;;;5077795;28;19935;-88
2022/10/16 07:07:09;;;;;;;;;;;12.30;99.90;;;;;;5048839;23;20020;-80
2022/10/16 07:09:35;;;;;;;;;;;12.30;99.90;;;;;;5037782;28;20016;-79
2022/10/16 07:12:01;;;;;;;;;;;12.30;99.90;;;;;;5022106;28;19920;-81
2022/10/16 07:14:27;;;;;;;;;;;12.30;99.90;;;;;;5042607;28;19956;-80
2022/10/16 07:16:53;;;;;;;;;;;12.40;99.90;;;;;;5038717;28;19913;-81
2022/10/16 07:19:18;;;;;;;;;;;12.50;99.90;;;;;;5045536;28;19962;-80
2022/10/16 07:21:44;;;;;;;;;;;12.60;99.90;;;;;;5059852;28;19920;-80
2022/10/16 07:24:14;;;;;;;;;;;12.60;99.90;;;;;;5060974;28;19916;-80
2022/10/16 07:26:40;;;;;;;;;;;12.60;99.90;;;;;;5071941;28;20011;-77
2022/10/16 07:29:14;;;;;;;;;;;12.80;99.90;;;;;;5074878;28;19912;-79
2022/10/16 07:31:40;;;;;;;;;;;12.90;99.90;;;;;;5076898;28;19955;-79
2022/10/16 07:34:05;;;;;;;;;;;13.00;99.90;;;;;;5056747;28;19909;-79
2022/10/16 07:36:31;;;;;;;;;;;13.00;99.90;;;;;;5069601;28;19913;-79
2022/10/16 07:38:57;;;;;;;;;;;13.00;99.90;;;;;;5068748;28;19920;-80
2022/10/16 07:41:22;;;;;;;;;;;13.10;99.90;;;;;;5070777;28;19959;-79
2022/10/16 07:43:49;;;;;;;;;;;13.20;99.90;;;;;;5063434;28;19928;-80
2022/10/16 07:46:16;;;;;;;;;;;13.10;99.90;;;;;;5064296;28;19924;-81
2022/10/16 07:48:45;;;;;;;;;;;13.00;99.90;;;;;;5047377;28;19913;-77
2022/10/16 07:51:11;;;;;;;;;;;12.90;99.90;;;;;;5056115;28;19919;-80
2022/10/16 07:53:37;;;;;;;;;;;12.90;99.90;;;;;;5072663;28;19923;-81
2022/10/16 07:56:05;;;;;;;;;;;12.80;99.90;;;;;;5053405;28;19956;-80
2022/10/16 07:58:31;;;;;;;;;;;12.70;99.90;;;;;;5068200;28;19908;-79
2022/10/16 08:00:57;;;;;;;;;;;12.60;99.90;;;;;;5050205;28;20234;-81
2022/10/16 08:03:23;;;;;;;;;;;12.70;99.90;;;;;;5048827;28;19916;-79
2022/10/16 08:05:50;;;;;;;;;;;12.70;99.90;;;;;;5067308;28;19913;-79
2022/10/16 08:08:16;;;;;;;;;;;12.80;99.90;;;;;;5027967;28;20470;-78
2022/10/16 08:10:42;;;;;;;;;;;12.90;99.90;;;;;;5048071;28;19913;-79
2022/10/16 08:13:08;;;;;;;;;;;12.90;99.90;;;;;;5067039;28;19958;-79
2022/10/16 08:15:33;;;;;;;;;;;13.00;99.90;;;;;;5066770;28;19913;-80
2022/10/16 08:18:03;;;;;;;;;;;13.00;99.90;;;;;;5064851;28;19913;-80
2022/10/16 08:20:30;;;;;;;;;;;13.10;99.90;;;;;;5044987;28;19913;-80
2022/10/16 08:22:55;;;;;;;;;;;13.10;99.90;;;;;;5062193;28;19909;-80
2022/10/16 08:25:22;;;;;;;;;;;13.30;99.90;;;;;;5061532;28;19996;-82
2022/10/16 08:27:47;;;;;;;;;;;13.20;99.90;;;;;;5059737;28;20419;-78
2022/10/16 08:30:13;;;;;;;;;;;13.30;99.90;;;;;;5060678;28;20168;-82
2022/10/16 08:32:41;;;;;;;;;;;13.30;99.90;;;;;;5043503;28;20328;-80
2022/10/16 08:35:06;;;;;;;;;;;13.40;99.90;;;;;;5060673;28;20016;-82
2022/10/16 08:37:32;;;;;;;;;;;13.40;99.90;;;;;;5064406;28;19935;-81
2022/10/16 08:39:58;;;;;;;;;;;13.50;99.90;;;;;;5045555;28;19913;-80
2022/10/16 08:42:42;;;;;;;;;;;13.50;99.90;;;;;;5063640;28;19916;-80
2022/10/16 08:45:14;;;;;;;;;;;13.50;99.90;;;;;;5042312;28;20007;-80
2022/10/16 08:47:54;;;;;;;;;;;13.60;99.90;;;;;;5065771;28;19913;-79
2022/10/16 08:50:24;;;;;;;;;;;13.60;99.90;;;;;;5078143;28;19908;-79
2022/10/16 08:52:50;;;;;;;;;;;13.50;99.90;;;;;;5078082;28;19917;-80
2022/10/16 08:55:26;;;;;;;;;;;13.60;99.90;;;;;;5048917;28;19909;-79
2022/10/16 08:57:52;;;;;;;;;;;13.70;99.90;;;;;;5047399;28;19912;-80
2022/10/16 09:00:18;;;;;;;;;;;13.80;99.90;;;;;;5063580;28;20400;-80
2022/10/16 09:02:43;;;;;;;;;;;13.90;99.90;;;;;;5062941;28;19912;-81
2022/10/16 09:05:18;;;;;;;;;;;13.90;99.90;;;;;;5046557;28;20005;-82
2022/10/16 09:07:53;;;;;;;;;;;13.90;99.90;;;;;;5063484;28;19924;-80
2022/10/16 09:10:37;;;;;;;;;;;14.00;99.90;;;;;;5027295;28;19936;-81
2022/10/16 09:13:18;;;;;;;;;;;14.00;99.90;;;;;;5060495;28;19920;-83
2022/10/16 09:15:54;;;;;;;;;;;14.10;99.90;;;;;;5059472;28;20407;-83
2022/10/16 09:18:33;;;;;;;;;;;14.20;99.90;;;;;;5060081;28;19982;-81
2022/10/16 09:21:05;;;;;;;;;;;14.20;99.90;;;;;;5059271;28;19912;-81
2022/10/16 09:23:34;;;;;;;;;;;14.20;99.90;;;;;;5060672;28;20265;-80
2022/10/16 09:25:59;;;;;;;;;;;14.30;99.90;;;;;;5066947;28;19920;-79
2022/10/16 09:28:25;;;;;;;;;;;14.20;99.90;;;;;;5069267;28;19912;-80
2022/10/16 09:30:51;;;;;;;;;;;14.30;99.90;;;;;;5065210;28;19909;-79
2022/10/16 09:33:18;;;;;;;;;;;14.30;99.90;;;;;;5061776;28;20458;-81
2022/10/16 09:35:49;;;;;;;;;;;14.30;99.90;;;;;;5060118;28;20472;-82
2022/10/16 09:38:23;;;;;;;;;;;14.50;99.90;;;;;;5058334;28;19916;-81
2022/10/16 09:40:49;;;;;;;;;;;14.60;99.90;;;;;;5059210;28;19975;-79
2022/10/16 09:43:19;;;;;;;;;;;14.80;99.90;;;;;;5040026;28;20310;-80
2022/10/16 09:45:58;;;;;;;;;;;15.00;99.90;;;;;;5059490;28;19913;-82
2022/10/16 09:48:26;;;;;;;;;;;15.20;99.90;;;;;;5061185;28;19913;-80
2022/10/16 09:50:56;;;;;;;;;;;15.50;99.90;;;;;;5057623;28;19960;-82
2022/10/16 09:53:22;;;;;;;;;;;15.60;99.90;;;;;;5058056;28;19912;-80
2022/10/16 09:55:52;;;;;;;;;;;15.70;99.90;;;;;;5056951;28;19931;-81
2022/10/16 09:58:18;;;;;;;;;;;15.60;99.90;;;;;;5057321;28;19962;-80
2022/10/16 10:00:53;;;;;;;;;;;15.70;99.90;;;;;;5057808;28;19908;-81
2022/10/16 10:03:46;;;;;;;;;;;15.90;99.90;;;;;;5058099;28;20280;-80
2022/10/16 10:06:21;;;;;;;;;;;16.10;99.90;;;;;;5039761;28;19917;-80
2022/10/16 10:09:16;;;;;;;;;;;16.30;99.90;;;;;;5039589;28;20384;-81
2022/10/16 10:11:42;;;;;;;;;;;16.10;99.90;;;;;;5036407;28;19912;-80
2022/10/16 10:14:28;;;;;;;;;;;16.40;99.90;;;;;;5065784;28;19963;-80
2022/10/16 10:17:06;;;;;;;;;;;16.70;99.90;;;;;;5062789;28;19913;-80
2022/10/16 10:19:48;;;;;;;;;;;17.30;99.90;;;;;;5040086;28;19954;-83
2022/10/16 10:22:23;;;;;;;;;;;17.70;99.90;;;;;;5040160;28;19966;-80
2022/10/16 10:25:15;;;;;;;;;;;18.60;99.90;;;;;;5039603;28;19957;-81
2022/10/16 10:28:00;;;;;;;;;;;19.10;99.90;;;;;;5019818;28;19912;-81
2022/10/16 10:30:41;;;;;;;;;;;19.40;99.90;;;;;;5039145;28;19975;-80
2022/10/16 10:33:22;;;;;;;;;;;20.40;99.90;;;;;;5059247;28;19913;-80
2022/10/16 10:35:47;;;;;;;;;;;21.30;99.90;;;;;;5041595;28;19917;-82
2022/10/16 10:38:25;;;;;;;;;;;22.70;99.90;;;;;;5062629;28;19909;-80
2022/10/16 10:40:56;;;;;;;;;;;22.10;99.90;;;;;;5066633;28;19913;-81
2022/10/16 10:43:37;;;;;;;;;;;22.10;99.90;;;;;;5048902;28;19913;-80
2022/10/16 10:46:04;;;;;;;;;;;22.90;99.90;;;;;;5064885;28;19984;-79
2022/10/16 10:48:41;;;;;;;;;;;23.90;99.90;;;;;;5064940;28;19909;-80
2022/10/16 10:51:10;;;;;;;;;;;24.60;99.90;;;;;;5059434;28;19967;-80
2022/10/16 10:53:44;;;;;;;;;;;24.70;99.90;;;;;;5061915;28;19999;-79
2022/10/16 10:56:09;;;;;;;;;;;25.00;99.90;;;;;;5063312;28;19920;-81
2022/10/16 10:58:44;;;;;;;;;;;25.30;99.90;;;;;;5063929;28;19972;-79
2022/10/16 11:01:14;;;;;;;;;;;24.70;99.90;;;;;;5061808;28;19919;-81
2022/10/16 11:03:58;;;;;;;;;;;24.20;99.90;;;;;;5060510;28;19919;-79
2022/10/16 11:06:26;;;;;;;;;;;24.10;99.90;;;;;;5062674;28;19917;-80
2022/10/16 11:08:55;;;;;;;;;;;24.00;99.90;;;;;;5046353;28;19912;-81
2022/10/16 11:11:37;;;;;;;;;;;24.20;99.90;;;;;;5063889;28;19913;-80
2022/10/16 11:14:32;;;;;;;;;;;24.90;99.90;;;;;;5062379;28;19940;-82
2022/10/16 11:17:05;;;;;;;;;;;25.50;99.90;;;;;;5040400;28;19913;-79
2022/10/16 11:19:35;;;;;;;;;;;25.10;99.90;;;;;;5068159;28;19955;-80
2022/10/16 11:22:03;;;;;;;;;;;25.60;99.90;;;;;;5062963;28;19967;-80
2022/10/16 11:24:37;;;;;;;;;;;27.10;99.90;;;;;;5060518;28;19909;-81
2022/10/16 11:27:04;;;;;;;;;;;28.40;97.90;;;;;;5060904;28;20003;-80
2022/10/16 11:29:31;;;;;;;;;;;29.10;96.10;;;;;;5066361;28;19913;-79
2022/10/16 11:32:04;;;;;;;;;;;28.00;96.30;;;;;;5049305;28;19913;-80
2022/10/16 11:34:44;;;;;;;;;;;27.30;96.70;;;;;;5067780;28;19912;-80
2022/10/16 11:37:12;;;;;;;;;;;27.50;97.70;;;;;;5061858;28;19931;-81
2022/10/16 11:39:38;;;;;;;;;;;28.70;95.50;;;;;;5061746;28;20240;-79
2022/10/16 11:42:13;;;;;;;;;;;28.70;95.20;;;;;;5043514;28;20043;-80
2022/10/16 11:44:38;;;;;;;;;;;28.10;95.80;;;;;;5064743;28;19913;-82
2022/10/16 11:47:04;;;;;;;;;;;27.40;96.00;;;;;;5046924;28;19908;-80
2022/10/16 11:49:31;;;;;;;;;;;26.90;96.60;;;;;;5064292;28;19917;-81
2022/10/16 11:52:02;;;;;;;;;;;27.80;96.50;;;;;;5069362;28;19909;-81
2022/10/16 11:54:32;;;;;;;;;;;27.70;95.70;;;;;;5072735;28;19913;-79
2022/10/16 11:57:01;;;;;;;;;;;27.40;95.80;;;;;;5072841;28;19916;-80
2022/10/16 11:59:30;;;;;;;;;;;26.50;96.90;;;;;;5064017;28;19909;-80
2022/10/16 12:02:13;;;;;;;;;;;26.30;98.10;;;;;;5060117;28;20411;-81
2022/10/16 12:04:45;;;;;;;;;;;27.20;97.10;;;;;;5045375;28;19935;-84
2022/10/16 12:07:31;;;;;;;;;;;26.80;96.50;;;;;;5067519;28;19932;-80
2022/10/16 12:10:00;;;;;;;;;;;26.10;97.70;;;;;;5069584;28;19983;-80
2022/10/16 12:12:27;;;;;;;;;;;26.00;98.00;;;;;;5070278;28;19967;-79
2022/10/16 12:15:00;;;;;;;;;;;26.10;97.90;;;;;;5071245;28;19920;-80
2022/10/16 12:17:33;;;;;;;;;;;26.50;97.70;;;;;;5056366;28;19924;-80
2022/10/16 12:20:00;;;;;;;;;;;28.40;96.00;;;;;;5073373;28;19976;-80
2022/10/16 12:22:27;;;;;;;;;;;29.80;94.10;;;;;;5073270;28;20134;-82
2022/10/16 12:24:54;;;;;;;;;;;29.60;93.20;;;;;;5074727;28;19912;-80
2022/10/16 12:27:29;;;;;;;;;;;28.00;94.20;;;;;;5073672;28;19916;-80
2022/10/16 12:30:00;;;;;;;;;;;26.60;96.10;;;;;;5072962;28;19920;-78
2022/10/16 12:32:29;;;;;;;;;;;26.00;97.60;;;;;;5055544;28;19913;-78
2022/10/16 12:34:54;;;;;;;;;;;25.00;99.10;;;;;;5070492;28;19909;-82
2022/10/16 12:37:22;;;;;;;;;;;23.70;99.90;;;;;;5070771;28;19912;-82
2022/10/16 12:39:48;;;;;;;;;;;23.20;99.90;;;;;;5066880;28;19912;-80
2022/10/16 12:42:23;;;;;;;;;;;22.60;99.90;;;;;;5069739;28;19913;-79
2022/10/16 12:44:49;;;;;;;;;;;22.40;99.90;;;;;;5037985;28;19923;-79
2022/10/16 12:47:29;;;;;;;;;;;22.30;99.90;;;;;;5071189;28;19909;-81
2022/10/16 12:49:55;;;;;;;;;;;22.10;99.90;;;;;;5055107;28;19917;-80
2022/10/16 12:52:29;;;;;;;;;;;22.20;99.90;;;;;;5056623;28;19944;-79
2022/10/16 12:55:00;;;;;;;;;;;22.20;99.90;;;;;;5060524;28;19988;-78
2022/10/16 12:57:26;;;;;;;;;;;22.40;99.90;;;;;;5078419;28;19921;-79
2022/10/16 13:00:12;;;;;;;;;;;22.50;99.90;;;;;;5069853;28;20425;-80
2022/10/16 13:02:41;;;;;;;;;;;22.20;99.90;;;;;;5065402;28;19939;-80
2022/10/16 13:05:26;;;;;;;;;;;21.90;99.90;;;;;;5042267;28;19988;-83
2022/10/16 13:07:52;;;;;;;;;;;22.00;99.90;;;;;;5080324;22;19940;-86
2022/10/16 13:10:17;;;;;;;;;;;22.20;99.90;;;;;;5054597;28;19921;-86
2022/10/16 13:13:02;;;;;;;;;;;22.30;99.90;;;;;;5050154;28;19913;-88
2022/10/16 13:15:33;;;;;;;;;;;22.20;99.90;;;;;;5049630;28;19913;-86
2022/10/16 13:18:13;;;;;;;;;;;22.00;99.90;;;;;;5067772;28;19920;-86
2022/10/16 13:20:39;;;;;;;;;;;22.00;99.90;;;;;;5076296;28;19897;-87
2022/10/16 13:23:16;;;;;;;;;;;22.00;99.90;;;;;;5076209;28;19976;-87
2022/10/16 13:26:00;;;;;;;;;;;22.10;99.90;;;;;;5077472;28;19905;-89
2022/10/16 13:28:31;;;;;;;;;;;22.20;99.90;;;;;;5078442;28;19905;-84
2022/10/16 13:30:58;;;;;;;;;;;22.20;99.90;;;;;;5078618;28;19947;-85
2022/10/16 13:33:38;;;;;;;;;;;22.20;99.90;;;;;;5078408;28;19913;-83
2022/10/16 13:36:05;;;;;;;;;;;22.00;99.90;;;;;;5078409;28;19912;-86
2022/10/16 13:38:32;;;;;;;;;;;21.80;99.90;;;;;;5073160;28;19913;-88
2022/10/16 13:41:05;;;;;;;;;;;21.70;99.90;;;;;;5071869;28;19913;-84
2022/10/16 13:43:37;;;;;;;;;;;21.70;99.90;;;;;;5072642;28;19951;-86
2022/10/16 13:46:08;;;;;;;;;;;21.50;99.90;;;;;;5071657;28;19913;-89
2022/10/16 13:48:34;;;;;;;;;;;21.30;99.90;;;;;;5070896;28;19908;-86
2022/10/16 13:51:00;;;;;;;;;;;21.20;99.90;;;;;;5072740;28;19909;-86
2022/10/16 13:53:26;;;;;;;;;;;21.10;99.90;;;;;;5074547;28;19912;-84
2022/10/16 13:55:52;;;;;;;;;;;21.10;99.90;;;;;;5074103;28;19908;-83
2022/10/16 13:58:20;;;;;;;;;;;21.10;99.90;;;;;;5074499;28;19911;-86
2022/10/16 14:00:57;;;;;;;;;;;21.10;99.90;;;;;;5073744;28;19913;-89
2022/10/16 14:03:23;;;;;;;;;;;21.10;99.90;;;;;;5065526;28;19938;-86
2022/10/16 14:05:51;;;;;;;;;;;21.00;99.90;;;;;;5066902;28;19909;-87
2022/10/16 14:08:17;;;;;;;;;;;21.00;99.90;;;;;;5065954;28;19916;-86
2022/10/16 14:10:47;;;;;;;;;;;21.00;99.90;;;;;;5068162;28;19908;-86
2022/10/16 14:13:15;;;;;;;;;;;21.00;99.90;;;;;;5069465;28;19913;-87
2022/10/16 14:15:45;;;;;;;;;;;20.90;99.90;;;;;;5067308;28;19992;-90
2022/10/16 14:18:18;;;;;;;;;;;20.90;99.90;;;;;;5067832;28;19978;-87
2022/10/16 14:20:44;;;;;;;;;;;20.90;99.90;;;;;;5069912;28;19963;-88
2022/10/16 14:23:27;;;;;;;;;;;20.90;99.90;;;;;;5066076;28;19909;-88
2022/10/16 14:25:53;;;;;;;;;;;20.80;99.90;;;;;;5066284;28;19985;-86
2022/10/16 14:28:22;;;;;;;;;;;20.80;99.90;;;;;;5065875;28;19908;-86